createdAt,value
2023-03-15T00:02:40.143Z,97810.03
2023-03-15T00:05:51.900Z,97822.25
2023-03-15T00:09:01.078Z,97820.78
2023-03-15T00:12:11.967Z,97830.47
2023-03-15T00:15:21.497Z,97835.53
2023-03-15T00:18:29.965Z,97842.50
2023-03-15T00:21:43.044Z,97855.06
2023-03-15T00:24:53.473Z,97867.50
2023-03-15T00:28:04.445Z,97872.59
2023-03-15T00:31:17.777Z,97874.69
2023-03-15T00:34:28.245Z,97872.16
2023-03-15T00:37:40.759Z,97875.38
2023-03-15T00:40:47.299Z,97884.22
2023-03-15T00:43:55.981Z,97877.59
2023-03-15T00:47:14.034Z,97885.16
2023-03-15T00:50:23.629Z,97898.69
2023-03-15T00:53:34.393Z,97905.81
2023-03-15T00:56:45.957Z,97905.72
2023-03-15T00:59:56.399Z,97901.78
2023-03-15T01:03:36.976Z,97910.31
2023-03-15T01:06:51.834Z,97912.00
2023-03-15T01:10:17.404Z,97928.56
2023-03-15T01:13:23.638Z,97929.31
2023-03-15T01:16:33.353Z,97932.53
2023-03-15T01:19:42.462Z,97937.53
2023-03-15T01:22:49.919Z,97938.31
2023-03-15T01:25:57.995Z,97938.72
2023-03-15T01:29:05.130Z,97939.13
2023-03-15T01:32:12.482Z,97939.59
2023-03-15T01:35:20.198Z,97945.06
2023-03-15T01:42:10.132Z,97942.63
2023-03-15T01:45:55.173Z,97945.09
2023-03-15T01:49:14.789Z,97949.28
2023-03-15T01:52:25.452Z,97964.06
2023-03-15T01:55:34.025Z,97968.34
2023-03-15T01:58:42.754Z,97969.34
2023-03-15T02:01:51.901Z,97973.41
2023-03-15T02:05:05.774Z,97967.75
2023-03-15T02:08:13.296Z,97975.16
2023-03-15T02:11:24.928Z,97974.22
2023-03-15T02:18:28.185Z,97975.75
2023-03-15T02:21:54.976Z,97980.81
2023-03-15T02:28:35.995Z,97984.53
2023-03-15T02:31:54.334Z,97992.66
2023-03-15T02:35:10.893Z,97996.81
2023-03-15T02:38:19.576Z,97996.22
2023-03-15T02:41:32.186Z,98012.38
2023-03-15T02:44:49.836Z,98008.00
2023-03-15T02:48:03.090Z,98020.53
2023-03-15T02:51:11.750Z,98023.91
2023-03-15T02:54:18.776Z,98034.28
2023-03-15T02:57:29.097Z,98045.44
2023-03-15T03:00:39.103Z,98051.44
2023-03-15T03:03:50.393Z,98058.16
2023-03-15T03:07:03.022Z,98055.00
2023-03-15T03:10:12.097Z,98062.38
2023-03-15T03:13:21.938Z,98076.22
2023-03-15T03:16:35.629Z,98071.28
2023-03-15T03:19:49.792Z,98084.41
2023-03-15T03:23:12.629Z,98085.13
2023-03-15T03:30:01.671Z,98094.22
2023-03-15T03:33:09.718Z,98109.53
2023-03-15T03:36:17.960Z,98110.81
2023-03-15T03:39:34.660Z,98109.09
2023-03-15T03:42:50.976Z,98108.84
2023-03-15T03:45:57.962Z,98117.16
2023-03-15T03:49:07.520Z,98129.72
2023-03-15T03:52:16.868Z,98130.06
2023-03-15T03:55:27.534Z,98139.28
2023-03-15T03:58:34.253Z,98143.09
2023-03-15T04:01:40.812Z,98144.94
2023-03-15T04:04:53.111Z,98151.28
2023-03-15T04:08:02.889Z,98150.94
2023-03-15T04:11:09.466Z,98159.47
2023-03-15T04:14:16.412Z,98166.03
2023-03-15T04:17:25.790Z,98170.50
2023-03-15T04:20:37.370Z,98176.97
2023-03-15T04:23:43.544Z,98180.91
2023-03-15T04:26:49.286Z,98182.94
2023-03-15T04:29:55.584Z,98194.13
2023-03-15T04:33:05.794Z,98195.50
2023-03-15T04:36:19.068Z,98186.56
2023-03-15T04:39:26.243Z,98186.78
2023-03-15T04:42:33.425Z,98194.94
2023-03-15T04:45:40.095Z,98195.09
2023-03-15T04:48:48.124Z,98197.22
2023-03-15T04:51:55.947Z,98195.28
2023-03-15T04:55:02.468Z,98194.69
2023-03-15T04:58:08.007Z,98198.34
2023-03-15T05:01:14.524Z,98199.75
2023-03-15T05:04:21.595Z,98193.59
2023-03-15T05:07:30.151Z,98192.31
2023-03-15T05:10:36.160Z,98192.78
2023-03-15T05:13:42.400Z,98197.50
2023-03-15T05:16:49.680Z,98194.97
2023-03-15T05:19:57.473Z,98192.66
2023-03-15T05:23:05.383Z,98196.50
2023-03-15T05:26:11.353Z,98195.75
2023-03-15T05:29:18.039Z,98188.88
2023-03-15T05:32:29.032Z,98201.91
2023-03-15T05:35:35.557Z,98206.06
2023-03-15T05:38:43.974Z,98204.94
2023-03-15T05:41:48.060Z,98209.63
2023-03-15T05:44:50.981Z,98201.78
2023-03-15T05:47:54.053Z,98214.94
2023-03-15T05:50:56.796Z,98216.91
2023-03-15T05:54:01.054Z,98222.28
2023-03-15T05:57:04.327Z,98215.75
2023-03-15T06:00:10.186Z,98218.28
2023-03-15T06:03:13.106Z,98220.91
2023-03-15T06:06:16.379Z,98223.91
2023-03-15T06:09:20.805Z,98224.78
2023-03-15T06:12:23.561Z,98232.88
2023-03-15T06:15:26.366Z,98232.66
2023-03-15T06:18:29.264Z,98230.47
2023-03-15T06:21:32.179Z,98233.59
2023-03-15T06:24:36.687Z,98241.00
2023-03-15T06:27:39.884Z,98244.59
2023-03-15T06:30:42.838Z,98242.53
2023-03-15T06:33:45.562Z,98236.16
2023-03-15T06:36:49.477Z,98237.00
2023-03-15T06:39:54.523Z,98238.88
2023-03-15T06:42:57.486Z,98241.38
2023-03-15T06:46:00.918Z,98243.16
2023-03-15T06:49:04.305Z,98241.84
2023-03-15T06:52:08.500Z,98227.22
2023-03-15T06:55:17.183Z,98230.13
2023-03-15T06:58:20.067Z,98231.53
2023-03-15T07:01:22.932Z,98234.97
2023-03-15T07:04:25.950Z,98229.56
2023-03-15T07:07:28.727Z,98230.47
2023-03-15T07:10:32.986Z,98219.19
2023-03-15T07:13:35.931Z,98225.41
2023-03-15T07:16:38.806Z,98227.88
2023-03-15T07:19:55.561Z,98228.78
2023-03-15T07:22:59.446Z,98242.41
2023-03-15T07:26:04.002Z,98236.94
2023-03-15T07:29:06.950Z,98247.47
2023-03-15T07:32:09.823Z,98254.09
2023-03-15T07:35:13.543Z,98266.44
2023-03-15T07:38:16.540Z,98262.06
2023-03-15T07:41:20.749Z,98270.84
2023-03-15T07:44:23.751Z,98287.28
2023-03-15T07:47:26.745Z,98284.25
2023-03-15T07:50:29.713Z,98279.81
2023-03-15T07:53:32.474Z,98276.19
2023-03-15T07:56:37.517Z,98283.41
2023-03-15T07:59:40.444Z,98286.22
2023-03-15T08:02:44.390Z,98288.31
2023-03-15T08:05:47.344Z,98286.00
2023-03-15T08:08:50.099Z,98279.31
2023-03-15T08:11:54.744Z,98280.28
2023-03-15T08:14:57.573Z,98289.09
2023-03-15T08:18:00.704Z,98288.97
2023-03-15T08:21:04.280Z,98291.41
2023-03-15T08:24:07.640Z,98283.91
2023-03-15T08:27:11.983Z,98292.94
2023-03-15T08:30:16.454Z,98300.72
2023-03-15T08:33:19.176Z,98297.59
2023-03-15T08:36:22.013Z,98300.59
2023-03-15T08:39:25.005Z,98294.22
2023-03-15T08:42:29.405Z,98305.41
2023-03-15T08:45:46.664Z,98299.75
2023-03-15T08:48:56.128Z,98296.41
2023-03-15T08:51:59.220Z,98303.09
2023-03-15T08:55:02.155Z,98306.81
2023-03-15T08:58:06.355Z,98310.59
2023-03-15T09:01:09.260Z,98308.91
2023-03-15T09:04:12.200Z,98315.53
2023-03-15T09:07:15.450Z,98311.31
2023-03-15T09:10:19.018Z,98317.53
2023-03-15T09:13:23.511Z,98322.91
2023-03-15T09:16:26.597Z,98325.22
2023-03-15T09:22:39.612Z,98328.06
2023-03-15T09:25:43.156Z,98332.59
2023-03-15T09:28:47.542Z,98329.88
2023-03-15T09:31:50.593Z,98335.94
2023-03-15T09:34:53.564Z,98335.66
2023-03-15T09:37:56.862Z,98340.22
2023-03-15T09:41:00.804Z,98332.44
2023-03-15T09:44:16.153Z,98346.03
2023-03-15T09:47:34.791Z,98339.47
2023-03-15T09:50:45.689Z,98337.34
2023-03-15T09:53:55.267Z,98347.34
2023-03-15T09:57:02.579Z,98352.47
2023-03-15T10:00:12.657Z,98342.41
2023-03-15T10:03:22.481Z,98339.75
2023-03-15T10:06:30.266Z,98342.22
2023-03-15T10:09:34.581Z,98336.94
2023-03-15T10:12:42.048Z,98336.03
2023-03-15T10:16:02.244Z,98340.78
2023-03-15T10:19:14.851Z,98335.03
2023-03-15T10:22:25.772Z,98337.31
2023-03-15T10:25:30.101Z,98334.38
2023-03-15T10:28:34.901Z,98332.03
2023-03-15T10:31:45.001Z,98334.31
2023-03-15T10:34:52.129Z,98319.88
2023-03-15T10:37:55.441Z,98318.75
2023-03-15T10:41:00.602Z,98318.56
2023-03-15T10:44:06.665Z,98317.53
2023-03-15T10:47:23.588Z,98319.97
2023-03-15T10:50:29.040Z,98332.53
2023-03-15T10:53:31.999Z,98317.81
2023-03-15T10:56:43.206Z,98320.50
2023-03-15T10:59:56.498Z,98321.81
2023-03-15T11:03:06.701Z,98327.97
2023-03-15T11:06:21.506Z,98324.94
2023-03-15T11:09:26.601Z,98321.69
2023-03-15T11:12:31.008Z,98329.66
2023-03-15T11:15:34.197Z,98315.19
2023-03-15T11:18:46.875Z,98320.47
2023-03-15T11:21:52.050Z,98326.09
2023-03-15T11:24:55.796Z,98321.25
2023-03-15T11:27:58.855Z,98330.84
2023-03-15T11:31:04.656Z,98325.16
2023-03-15T11:34:13.599Z,98323.44
2023-03-15T11:37:20.872Z,98323.06
2023-03-15T11:40:32.601Z,98327.56
2023-03-15T11:43:48.460Z,98327.75
2023-03-15T11:46:57.423Z,98327.44
2023-03-15T11:50:02.013Z,98322.13
2023-03-15T11:53:07.179Z,98324.91
2023-03-15T11:56:26.238Z,98330.28
2023-03-15T11:59:32.665Z,98330.59
2023-03-15T12:02:49.168Z,98333.69
2023-03-15T12:05:59.800Z,98326.25
2023-03-15T12:09:03.068Z,98334.72
2023-03-15T12:12:07.771Z,98333.09
2023-03-15T12:15:50.004Z,98336.59
2023-03-15T12:18:54.568Z,98343.59
2023-03-15T12:21:59.819Z,98333.47
2023-03-15T12:25:12.861Z,98335.69
2023-03-15T12:28:22.974Z,98330.31
2023-03-15T12:31:26.351Z,98331.41
2023-03-15T12:34:43.403Z,98335.13
2023-03-15T12:37:49.611Z,98330.22
2023-03-15T12:40:55.268Z,98340.34
2023-03-15T12:44:19.722Z,98343.59
2023-03-15T12:47:22.566Z,98343.53
2023-03-15T12:50:39.302Z,98349.53
2023-03-15T12:53:49.192Z,98351.16
2023-03-15T12:56:55.502Z,98362.03
2023-03-15T13:00:02.028Z,98364.34
2023-03-15T13:03:07.677Z,98369.09
2023-03-15T13:06:20.229Z,98370.75
2023-03-15T13:09:42.161Z,98358.13
2023-03-15T13:12:49.211Z,98359.81
2023-03-15T13:16:05.636Z,98362.91
2023-03-15T13:19:18.717Z,98359.00
2023-03-15T13:22:30.282Z,98356.66
2023-03-15T13:25:39.938Z,98358.06
2023-03-15T13:28:49.482Z,98368.63
2023-03-15T13:32:03.008Z,98359.28
2023-03-15T13:35:13.060Z,98364.81
2023-03-15T13:38:27.130Z,98372.59
2023-03-15T13:41:32.449Z,98370.84
2023-03-15T13:44:35.384Z,98367.97
2023-03-15T13:47:38.256Z,98372.81
2023-03-15T13:50:40.937Z,98383.00
2023-03-15T13:53:50.016Z,98383.16
2023-03-15T13:57:04.997Z,98387.72
2023-03-15T14:00:12.016Z,98379.50
2023-03-15T14:03:22.281Z,98378.09
2023-03-15T14:06:27.209Z,98387.63
2023-03-15T14:09:29.856Z,98372.66
2023-03-15T14:12:34.120Z,98371.59
2023-03-15T14:15:39.209Z,98361.97
2023-03-15T14:18:42.699Z,98367.16
2023-03-15T14:21:48.815Z,98361.97
2023-03-15T14:24:53.563Z,98355.56
2023-03-15T14:28:01.227Z,98355.47
2023-03-15T14:31:04.399Z,98358.41
2023-03-15T14:34:09.930Z,98364.22
2023-03-15T14:37:31.053Z,98368.41
2023-03-15T14:40:35.974Z,98370.09
2023-03-15T14:43:39.987Z,98373.72
2023-03-15T14:46:42.744Z,98380.16
2023-03-15T14:49:45.472Z,98392.38
2023-03-15T14:52:49.087Z,98406.91
2023-03-15T14:55:51.906Z,98401.59
2023-03-15T14:58:55.922Z,98401.78
2023-03-15T15:02:00.935Z,98394.34
2023-03-15T15:05:04.339Z,98399.03
2023-03-15T15:08:12.776Z,98401.53
2023-03-15T15:11:15.875Z,98404.41
2023-03-15T15:14:20.354Z,98407.16
2023-03-15T15:17:23.445Z,98412.72
2023-03-15T15:20:26.398Z,98415.75
2023-03-15T15:23:31.086Z,98424.31
2023-03-15T15:26:34.440Z,98432.47
2023-03-15T15:29:38.449Z,98436.31
2023-03-15T15:32:41.179Z,98435.09
2023-03-15T15:35:43.912Z,98438.47
2023-03-15T15:38:46.652Z,98437.31
2023-03-15T15:41:49.897Z,98434.09
2023-03-15T15:44:53.854Z,98435.81
2023-03-15T15:47:56.911Z,98433.84
2023-03-15T15:50:59.561Z,98426.63
2023-03-15T15:54:03.458Z,98430.06
2023-03-15T15:57:07.843Z,98428.22
2023-03-15T16:00:17.943Z,98424.44
2023-03-15T16:03:20.622Z,98430.06
2023-03-15T16:06:23.585Z,98428.66
2023-03-15T16:09:29.977Z,98432.22
2023-03-15T16:12:32.741Z,98432.47
2023-03-15T16:15:36.793Z,98441.13
2023-03-15T16:18:39.401Z,98441.63
2023-03-15T16:21:44.943Z,98436.88
2023-03-15T16:24:50.975Z,98438.66
2023-03-15T16:27:55.657Z,98438.81
2023-03-15T16:30:59.739Z,98433.00
2023-03-15T16:34:02.469Z,98440.44
2023-03-15T16:37:05.667Z,98449.31
2023-03-15T16:40:16.243Z,98452.22
2023-03-15T16:43:19.675Z,98457.06
2023-03-15T16:46:23.690Z,98452.06
2023-03-15T16:49:26.307Z,98462.56
2023-03-15T16:52:29.030Z,98460.47
2023-03-15T16:55:33.763Z,98456.50
2023-03-15T16:58:36.522Z,98463.19
2023-03-15T17:01:40.651Z,98464.34
2023-03-15T17:04:43.331Z,98469.00
2023-03-15T17:07:47.904Z,98472.53
2023-03-15T17:10:50.706Z,98480.75
2023-03-15T17:13:53.314Z,98482.56
2023-03-15T17:16:57.434Z,98496.97
2023-03-15T17:20:00.113Z,98496.19
2023-03-15T17:23:04.878Z,98506.25
2023-03-15T17:26:10.754Z,98504.63
2023-03-15T17:29:15.814Z,98503.72
2023-03-15T17:32:19.951Z,98507.31
2023-03-15T17:35:25.432Z,98514.03
2023-03-15T17:38:32.086Z,98515.44
2023-03-15T17:41:36.986Z,98514.38
2023-03-15T17:44:39.558Z,98512.66
2023-03-15T17:47:43.594Z,98517.03
2023-03-15T17:50:46.244Z,98519.84
2023-03-15T17:53:49.223Z,98521.69
2023-03-15T17:56:52.241Z,98511.84
2023-03-15T17:59:54.850Z,98527.81
2023-03-15T18:03:00.133Z,98522.94
2023-03-15T18:06:05.200Z,98529.75
2023-03-15T18:09:07.867Z,98527.56
2023-03-15T18:12:13.187Z,98524.56
2023-03-15T18:15:19.102Z,98529.97
2023-03-15T18:18:23.094Z,98544.84
2023-03-15T18:21:28.412Z,98548.06
2023-03-15T18:24:31.672Z,98547.50
2023-03-15T18:27:34.332Z,98551.59
2023-03-15T18:30:38.021Z,98541.22
2023-03-15T18:33:42.320Z,98550.00
2023-03-15T18:36:45.128Z,98546.63
2023-03-15T18:39:47.814Z,98548.94
2023-03-15T18:42:50.623Z,98548.25
2023-03-15T18:45:53.504Z,98554.59
2023-03-15T18:48:57.576Z,98550.84
2023-03-15T18:52:00.190Z,98556.94
2023-03-15T18:55:03.102Z,98553.69
2023-03-15T18:58:08.832Z,98559.97
2023-03-15T19:01:11.685Z,98546.03
2023-03-15T19:04:15.706Z,98561.59
2023-03-15T19:07:18.449Z,98562.19
2023-03-15T19:10:22.527Z,98568.69
2023-03-15T19:13:25.242Z,98559.09
2023-03-15T19:16:30.493Z,98560.78
2023-03-15T19:19:35.072Z,98554.59
2023-03-15T19:22:37.652Z,98560.22
2023-03-15T19:25:40.418Z,98556.25
2023-03-15T19:28:43.547Z,98557.28
2023-03-15T19:31:46.175Z,98562.38
2023-03-15T19:34:50.131Z,98569.66
2023-03-15T19:37:53.502Z,98577.47
2023-03-15T19:40:58.546Z,98590.72
2023-03-15T19:44:01.158Z,98576.81
2023-03-15T19:47:03.845Z,98588.81
2023-03-15T19:50:10.579Z,98587.06
2023-03-15T19:53:13.195Z,98593.75
2023-03-15T19:56:15.947Z,98594.78
2023-03-15T19:59:18.584Z,98606.56
2023-03-15T20:02:21.261Z,98605.75
2023-03-15T20:05:26.127Z,98597.00
2023-03-15T20:08:28.765Z,98601.13
2023-03-15T20:11:32.146Z,98594.63
2023-03-15T20:14:35.248Z,98602.28
2023-03-15T20:17:38.337Z,98599.41
2023-03-15T20:20:42.278Z,98598.16
2023-03-15T20:23:45.413Z,98608.22
2023-03-15T20:26:48.276Z,98602.50
2023-03-15T20:29:51.821Z,98604.84
2023-03-15T20:32:54.831Z,98611.22
2023-03-15T20:35:59.046Z,98605.59
2023-03-15T20:39:01.883Z,98609.44
2023-03-15T20:42:04.692Z,98607.44
2023-03-15T20:45:09.675Z,98620.47
2023-03-15T20:48:12.659Z,98615.56
2023-03-15T20:51:16.674Z,98609.50
2023-03-15T20:54:19.342Z,98616.69
2023-03-15T20:57:22.027Z,98615.50
2023-03-15T21:00:27.139Z,98613.28
2023-03-15T21:03:31.225Z,98609.22
2023-03-15T21:06:35.240Z,98621.50
2023-03-15T21:09:38.099Z,98618.88
2023-03-15T21:12:40.759Z,98611.41
2023-03-15T21:15:45.791Z,98628.66
2023-03-15T21:18:51.876Z,98628.06
2023-03-15T21:21:56.944Z,98629.94
2023-03-15T21:25:00.383Z,98630.13
2023-03-15T21:28:03.904Z,98624.69
2023-03-15T21:31:07.356Z,98618.75
2023-03-15T21:34:10.021Z,98623.47
2023-03-15T21:37:13.961Z,98622.63
2023-03-15T21:40:16.638Z,98631.75
2023-03-15T21:43:19.823Z,98626.63
2023-03-15T21:46:22.697Z,98619.09
2023-03-15T21:49:25.419Z,98625.88
2023-03-15T21:52:29.504Z,98630.00
2023-03-15T21:55:33.445Z,98623.31
2023-03-15T21:58:36.450Z,98627.16
2023-03-15T22:01:39.030Z,98633.06
2023-03-15T22:04:42.668Z,98634.69
2023-03-15T22:07:46.950Z,98631.66
2023-03-15T22:10:53.362Z,98626.81
2023-03-15T22:13:56.001Z,98636.56
2023-03-15T22:16:58.664Z,98634.50
2023-03-15T22:20:02.356Z,98638.00
2023-03-15T22:23:06.613Z,98633.50
2023-03-15T22:26:09.246Z,98634.56
2023-03-15T22:29:11.990Z,98633.75
2023-03-15T22:32:14.593Z,98632.34
2023-03-15T22:35:17.998Z,98634.81
2023-03-15T22:38:22.765Z,98633.81
2023-03-15T22:41:25.369Z,98639.91
2023-03-15T22:44:30.404Z,98633.00
2023-03-15T22:47:33.198Z,98641.41
2023-03-15T22:50:35.845Z,98643.88
2023-03-15T22:53:39.879Z,98644.50
2023-03-15T22:56:43.000Z,98637.94
2023-03-15T22:59:45.749Z,98631.88
2023-03-15T23:02:48.454Z,98629.63
2023-03-15T23:05:51.129Z,98622.66
2023-03-15T23:08:55.112Z,98614.53
2023-03-15T23:11:57.760Z,98607.19
2023-03-15T23:15:01.611Z,98615.94
2023-03-15T23:18:05.721Z,98614.38
2023-03-15T23:21:10.736Z,98613.78
2023-03-15T23:24:17.148Z,98606.91
2023-03-15T23:27:19.810Z,98608.75
2023-03-15T23:30:22.998Z,98605.47
2023-03-15T23:33:25.688Z,98601.16
2023-03-15T23:36:28.371Z,98600.97
2023-03-15T23:39:32.351Z,98608.31
2023-03-15T23:42:37.459Z,98601.41
2023-03-15T23:45:40.130Z,98607.53
2023-03-15T23:48:42.834Z,98599.63
2023-03-15T23:51:45.442Z,98608.59
2023-03-15T23:54:49.608Z,98606.56
2023-03-15T23:57:52.282Z,98603.09
